Terminal Aerodrome Forecast
Issued by NWS

Home | Current Version | Previous Version | Text Only | Print | Product List | Glossary On
Versions: 1 2 3 4 5 6 7 8 9 10 11 12 13 14 15
000
FTUS46 KSGX 251100
TAFSNA
TAF
KSNA 251124Z 2512/2612 VRB04KT P6SM BKN012
     FM251500 VRB04KT P6SM FEW015 SCT200
     FM251800 20010KT P6SM SCT200
     FM260600 17006KT P6SM BKN009 OVC200=

USA.gov is the U.S. government's official web portal to all federal, state and local government web resources and services.